Time;durP1;ratioP1;P1;durP2;ratioP2;P2;SDS_P1;SDS_P2;PMS_P1;PMS_P2;Temp;Humidity;BMP_temperature;BMP_pressure;BME280_temperature;BME280_humidity;BME280_pressure;Samples;Min_cycle;Max_cycle;Signal;HPM_P1;HPM_P2
2023/05/21 00:01:42;;;;;;;5.78;3.97;;;17.60;99.90;;;;;;5084899;28;20032;-47
2023/05/21 00:04:08;;;;;;;5.93;4.30;;;17.50;99.90;;;;;;5065801;28;20040;-46
2023/05/21 00:06:37;;;;;;;5.00;3.75;;;17.40;99.90;;;;;;5072330;28;20502;-47
2023/05/21 00:09:04;;;;;;;5.68;3.83;;;17.30;99.90;;;;;;5068389;28;20460;-46
2023/05/21 00:11:30;;;;;;;7.07;3.63;;;17.30;99.90;;;;;;5067608;28;20036;-47
2023/05/21 00:13:56;;;;;;;7.60;4.03;;;17.30;99.90;;;;;;5073544;28;20040;-46
2023/05/21 00:16:23;;;;;;;6.70;3.88;;;;;;;;;;5085649;28;20068;-46
2023/05/21 00:18:48;;;;;;;6.32;3.58;;;17.20;99.90;;;;;;5088721;28;20127;-46
2023/05/21 00:21:21;;;;;;;6.38;4.13;;;17.20;99.90;;;;;;5074388;28;20115;-45
2023/05/21 00:23:53;;;;;;;6.57;4.30;;;17.00;99.90;;;;;;5068294;28;20070;-47
2023/05/21 00:26:20;;;;;;;6.17;4.03;;;17.00;99.90;;;;;;5069230;28;20039;-45
2023/05/21 00:28:46;;;;;;;8.05;5.82;;;16.90;99.90;;;;;;5073793;28;20289;-45
2023/05/21 00:31:12;;;;;;;11.00;6.50;;;16.80;99.90;;;;;;5071884;28;20027;-45
2023/05/21 00:33:37;;;;;;;8.05;5.30;;;16.80;99.90;;;;;;5088987;28;20201;-46
2023/05/21 00:36:04;;;;;;;8.80;5.38;;;16.80;99.90;;;;;;5088221;28;20107;-46
2023/05/21 00:38:31;;;;;;;8.38;5.43;;;16.90;99.90;;;;;;5064232;28;20476;-46
2023/05/21 00:41:02;;;;;;;6.78;4.20;;;17.00;99.90;;;;;;5055785;28;20039;-45
2023/05/21 00:43:28;;;;;;;7.50;3.75;;;17.10;99.90;;;;;;5068323;28;20041;-46
2023/05/21 00:45:55;;;;;;;6.47;4.10;;;17.10;99.90;;;;;;5074005;28;20037;-48
2023/05/21 00:48:22;;;;;;;6.20;3.70;;;17.10;99.90;;;;;;5073714;28;20090;-46
2023/05/21 00:50:49;;;;;;;7.97;4.13;;;17.00;99.90;;;;;;5069721;28;20020;-46
2023/05/21 00:53:18;;;;;;;6.97;4.25;;;17.00;99.90;;;;;;5073971;28;20461;-46
2023/05/21 00:55:45;;;;;;;7.43;4.30;;;17.10;99.90;;;;;;5073181;28;20036;-46
2023/05/21 00:58:11;;;;;;;5.07;3.55;;;17.10;99.90;;;;;;5068447;28;20040;-45
2023/05/21 01:00:36;;;;;;;6.97;3.80;;;16.50;99.90;;;;;;5073022;28;20048;-46
2023/05/21 01:03:03;;;;;;;6.03;3.80;;;16.40;99.90;;;;;;5073769;28;20036;-46
2023/05/21 01:05:29;;;;;;;8.48;4.78;;;16.40;99.90;;;;;;5072801;28;20108;-46
2023/05/21 01:07:56;;;;;;;10.43;4.18;;;16.40;99.90;;;;;;5071350;28;20557;-47
2023/05/21 01:10:23;;;;;;;7.20;4.28;;;;;;;;;;5072452;28;20064;-45
2023/05/21 01:12:50;;;;;;;6.05;3.90;;;;;;;;;;5087991;28;20048;-46
2023/05/21 01:15:16;;;;;;;7.32;4.65;;;;;;;;;;5072352;28;20460;-45
2023/05/21 01:17:44;;;;;;;10.05;4.68;;;16.20;99.90;;;;;;5088648;28;20037;-47
2023/05/21 01:20:11;;;;;;;6.80;4.10;;;16.10;99.90;;;;;;5072976;28;20480;-48
2023/05/21 01:22:42;;;;;;;5.85;4.38;;;15.90;99.90;;;;;;5072627;28;20047;-45
2023/05/21 01:25:09;;;;;;;8.60;5.00;;;15.80;99.90;;;;;;5072456;28;20036;-45
2023/05/21 01:27:35;;;;;;;5.85;4.25;;;16.00;99.90;;;;;;5069675;28;20170;-46
2023/05/21 01:30:01;;;;;;;5.90;4.05;;;16.20;99.90;;;;;;5072436;28;20107;-45
2023/05/21 01:32:52;;;;;;;5.72;3.53;;;16.20;99.90;;;;;;5070696;28;20048;-45
2023/05/21 01:35:25;;;;;;;9.50;4.10;;;16.20;99.90;;;;;;5072570;28;20017;-47
2023/05/21 01:38:12;;;;;;;6.95;4.03;;;16.00;99.90;;;;;;5071930;28;20035;-46
2023/05/21 01:40:45;;;;;;;4.68;3.67;;;16.00;99.90;;;;;;5068931;28;20421;-47
2023/05/21 01:43:13;;;;;;;5.22;4.05;;;16.00;99.90;;;;;;5072630;28;20024;-47
2023/05/21 01:45:41;;;;;;;5.13;3.80;;;16.00;99.90;;;;;;5072591;28;20032;-47
2023/05/21 01:48:08;;;;;;;6.65;4.03;;;15.80;99.90;;;;;;5072505;28;20031;-47
2023/05/21 01:50:36;;;;;;;5.65;4.28;;;15.60;99.90;;;;;;5072362;28;20415;-47
2023/05/21 01:53:02;;;;;;;7.63;4.32;;;15.60;99.90;;;;;;5070826;28;20025;-45
2023/05/21 01:55:30;;;;;;;6.65;4.47;;;15.70;99.90;;;;;;5065905;28;20029;-48
2023/05/21 01:57:57;;;;;;;5.13;3.80;;;15.60;99.90;;;;;;5084357;28;20067;-46
2023/05/21 02:00:27;;;;;;;7.65;4.05;;;15.70;99.90;;;;;;5086963;28;20054;-48
2023/05/21 02:02:53;;;;;;;7.53;3.83;;;15.80;99.90;;;;;;5071770;28;20471;-48
2023/05/21 02:05:18;;;;;;;6.22;3.70;;;15.70;99.90;;;;;;5087012;28;20064;-48
2023/05/21 02:07:46;;;;;;;6.45;4.28;;;15.60;99.90;;;;;;5072444;28;20487;-47
2023/05/21 02:10:12;;;;;;;5.75;4.00;;;;;;;;;;5064227;28;20024;-45
2023/05/21 02:12:38;;;;;;;5.32;3.75;;;;;;;;;;5071133;28;20045;-48
2023/05/21 02:15:04;;;;;;;5.70;3.90;;;15.20;99.90;;;;;;5069112;28;20028;-48
2023/05/21 02:17:32;;;;;;;6.32;3.97;;;15.00;99.90;;;;;;5072253;28;20032;-49
2023/05/21 02:20:09;;;;;;;6.85;5.03;;;15.00;99.90;;;;;;5068235;28;20040;-49
2023/05/21 02:22:37;;;;;;;8.45;4.60;;;15.20;99.90;;;;;;5065609;28;20043;-49
2023/05/21 02:25:03;;;;;;;6.57;4.78;;;15.20;99.90;;;;;;5071296;28;20384;-46
2023/05/21 02:27:31;;;;;;;5.82;3.90;;;15.30;99.90;;;;;;5047545;28;20033;-49
2023/05/21 02:29:57;;;;;;;6.45;4.72;;;15.40;99.90;;;;;;5070313;28;20032;-47
2023/05/21 02:32:23;;;;;;;7.45;4.28;;;15.40;99.90;;;;;;5074234;28;20036;-50
2023/05/21 02:34:49;;;;;;;7.20;4.22;;;15.20;99.90;;;;;;5075591;28;20032;-46
2023/05/21 02:37:16;;;;;;;10.05;4.57;;;15.00;99.90;;;;;;5075929;28;20032;-48
2023/05/21 02:39:42;;;;;;;5.68;3.95;;;14.90;99.90;;;;;;5075974;28;20032;-48
2023/05/21 02:42:07;;;;;;;6.03;4.45;;;15.10;99.90;;;;;;5075551;28;20031;-46
2023/05/21 02:44:33;;;;;;;8.60;4.40;;;15.30;99.90;;;;;;5075912;28;20043;-45
2023/05/21 02:46:59;;;;;;;5.60;4.32;;;15.30;99.90;;;;;;5075501;28;20020;-47
2023/05/21 02:49:25;;;;;;;6.03;4.00;;;15.40;99.90;;;;;;5075312;28;20043;-47
2023/05/21 02:51:50;;;;;;;5.35;4.35;;;15.50;99.90;;;;;;5090634;28;20123;-48
2023/05/21 02:54:16;;;;;;;5.88;4.00;;;15.70;99.90;;;;;;5074828;28;20086;-48
2023/05/21 02:56:42;;;;;;;9.18;4.25;;;15.80;99.90;;;;;;5068962;28;20040;-46
2023/05/21 02:59:07;;;;;;;8.10;5.22;;;15.80;99.90;;;;;;5072273;28;20052;-48
2023/05/21 03:01:33;;;;;;;5.47;4.30;;;15.60;99.90;;;;;;5071066;28;20159;-49
2023/05/21 03:03:59;;;;;;;6.47;4.43;;;15.60;99.90;;;;;;5073131;28;20111;-46
2023/05/21 03:06:24;;;;;;;7.32;4.90;;;15.70;99.90;;;;;;5075333;28;20111;-48
2023/05/21 03:08:50;;;;;;;6.88;4.63;;;15.90;99.90;;;;;;5074976;28;20035;-46
2023/05/21 03:11:18;;;;;;;8.07;4.68;;;16.00;99.90;;;;;;5073968;28;20078;-47
2023/05/21 03:13:44;;;;;;;8.25;5.28;;;15.90;99.90;;;;;;5075080;28;20055;-48
2023/05/21 03:16:10;;;;;;;6.70;4.13;;;16.00;99.90;;;;;;5072971;28;20028;-47
2023/05/21 03:18:36;;;;;;;6.80;4.43;;;16.00;99.90;;;;;;5075164;28;20029;-47
2023/05/21 03:21:03;;;;;;;7.68;4.65;;;16.10;99.90;;;;;;5074957;28;20028;-48
2023/05/21 03:23:28;;;;;;;6.38;4.55;;;16.00;99.90;;;;;;5039260;28;20043;-48
2023/05/21 03:25:54;;;;;;;6.88;4.82;;;16.10;99.90;;;;;;5075409;28;20111;-46
2023/05/21 03:28:20;;;;;;;9.00;4.78;;;16.20;99.90;;;;;;5074568;28;20067;-47
2023/05/21 03:30:48;;;;;;;6.80;4.78;;;16.20;99.90;;;;;;5023175;28;20132;-47
2023/05/21 03:33:15;;;;;;;7.25;4.65;;;16.20;99.90;;;;;;5074028;28;20123;-48
2023/05/21 03:35:40;;;;;;;5.65;3.88;;;16.20;99.90;;;;;;5074127;28;20517;-48
2023/05/21 03:38:06;;;;;;;13.35;6.65;;;16.10;99.90;;;;;;5089586;28;20032;-48
2023/05/21 03:40:32;;;;;;;11.88;7.38;;;16.20;99.90;;;;;;5090477;28;20036;-46
2023/05/21 03:42:58;;;;;;;11.60;7.47;;;16.20;99.90;;;;;;5089741;28;20033;-47
2023/05/21 03:45:23;;;;;;;11.43;6.60;;;16.20;99.90;;;;;;5074910;28;20488;-47
2023/05/21 03:47:49;;;;;;;8.90;5.28;;;16.20;99.90;;;;;;5072874;28;20210;-48
2023/05/21 03:50:15;;;;;;;8.57;4.32;;;16.10;99.90;;;;;;5088643;28;20036;-46
2023/05/21 03:52:41;;;;;;;9.18;4.75;;;16.10;99.90;;;;;;5072007;28;20098;-47
2023/05/21 03:55:07;;;;;;;6.55;4.05;;;15.90;99.90;;;;;;5072567;28;20068;-46
2023/05/21 03:57:33;;;;;;;6.07;4.38;;;15.80;99.90;;;;;;5033086;28;20040;-47
2023/05/21 03:59:59;;;;;;;7.85;4.75;;;15.70;99.90;;;;;;5072007;28;20040;-47
2023/05/21 04:02:26;;;;;;;8.60;4.55;;;15.70;99.90;;;;;;5074503;28;20035;-48
2023/05/21 04:04:52;;;;;;;6.10;4.10;;;15.70;99.90;;;;;;5074188;28;20024;-47
2023/05/21 04:07:21;;;;;;;5.65;4.00;;;15.70;99.90;;;;;;5074844;28;20074;-46
2023/05/21 04:09:47;;;;;;;6.45;4.28;;;15.60;99.90;;;;;;5070313;28;20035;-46
2023/05/21 04:12:12;;;;;;;7.03;4.53;;;15.60;99.90;;;;;;5074129;28;20029;-47
2023/05/21 04:14:38;;;;;;;7.97;4.25;;;15.60;99.90;;;;;;5074640;28;20476;-46
2023/05/21 04:17:04;;;;;;;5.35;3.80;;;15.80;99.90;;;;;;5073376;28;20476;-47
2023/05/21 04:19:33;;;;;;;6.07;4.53;;;15.90;99.90;;;;;;5088095;28;20047;-46
2023/05/21 04:21:59;;;;;;;7.00;4.47;;;16.00;99.90;;;;;;5064547;28;20420;-47
2023/05/21 04:24:24;;;;;;;6.07;4.45;;;15.70;99.90;;;;;;5072955;28;20035;-47
2023/05/21 04:26:50;;;;;;;6.25;4.07;;;15.80;99.90;;;;;;5072062;28;20034;-47
2023/05/21 04:29:20;;;;;;;7.80;4.72;;;15.80;99.90;;;;;;5072123;28;20028;-46
2023/05/21 04:31:48;;;;;;;7.32;4.53;;;16.10;99.90;;;;;;5070595;28;20040;-48
2023/05/21 04:34:16;;;;;;;7.68;4.65;;;16.10;99.90;;;;;;5073526;28;20024;-46
2023/05/21 04:36:44;;;;;;;6.80;4.40;;;16.20;99.90;;;;;;5071440;28;20078;-48
2023/05/21 04:39:11;;;;;;;10.98;4.85;;;16.30;99.90;;;;;;5072546;28;20629;-48
2023/05/21 04:41:37;;;;;;;6.45;4.95;;;16.20;99.90;;;;;;5073963;28;20020;-45
2023/05/21 04:44:05;;;;;;;7.55;4.60;;;16.10;99.90;;;;;;5073311;28;20499;-47
2023/05/21 04:46:31;;;;;;;7.90;5.35;;;15.90;99.90;;;;;;5068874;28;20041;-48
2023/05/21 04:49:01;;;;;;;6.70;4.55;;;16.20;99.90;;;;;;5073084;28;20456;-48
2023/05/21 04:51:27;;;;;;;8.00;5.05;;;16.40;99.90;;;;;;5070065;28;20745;-48
2023/05/21 04:53:53;;;;;;;9.65;5.68;;;16.40;99.90;;;;;;5071501;28;20490;-49
2023/05/21 04:56:21;;;;;;;6.85;4.57;;;16.30;99.90;;;;;;5064841;28;20170;-48
2023/05/21 04:58:47;;;;;;;5.95;4.18;;;16.20;99.90;;;;;;5070534;28;20086;-49
2023/05/21 05:01:14;;;;;;;5.97;4.38;;;15.90;99.90;;;;;;5073211;28;20033;-50
2023/05/21 05:03:40;;;;;;;7.50;4.30;;;16.10;99.90;;;;;;5073450;28;20117;-48
2023/05/21 05:06:07;;;;;;;8.10;4.68;;;16.30;99.90;;;;;;5073613;28;20067;-49
2023/05/21 05:08:33;;;;;;;7.68;4.13;;;16.60;99.90;;;;;;5072642;28;20115;-49
2023/05/21 05:10:59;;;;;;;6.28;4.38;;;16.80;99.90;;;;;;5071782;28;20147;-49
2023/05/21 05:13:25;;;;;;;7.13;4.10;;;16.80;99.90;;;;;;5072634;28;20048;-49
2023/05/21 05:15:52;;;;;;;7.03;4.65;;;16.80;99.90;;;;;;5072659;28;20029;-50
2023/05/21 05:18:19;;;;;;;7.88;4.47;;;17.00;99.90;;;;;;5053350;28;20063;-49
2023/05/21 05:20:45;;;;;;;5.35;4.00;;;17.00;99.90;;;;;;5072790;28;20086;-50
2023/05/21 05:23:11;;;;;;;5.63;4.60;;;17.20;99.90;;;;;;5047486;28;20033;-49
2023/05/21 05:25:37;;;;;;;6.97;4.82;;;17.00;99.90;;;;;;5087554;28;20094;-48
2023/05/21 05:28:03;;;;;;;7.18;4.95;;;17.20;99.90;;;;;;5072516;28;20024;-49
2023/05/21 05:30:29;;;;;;;7.88;4.80;;;17.40;99.90;;;;;;5066838;28;20502;-49
2023/05/21 05:32:55;;;;;;;7.65;4.18;;;17.60;99.90;;;;;;5072261;28;20503;-49
2023/05/21 05:35:21;;;;;;;6.72;5.00;;;17.80;99.90;;;;;;5068414;28;20051;-49
2023/05/21 05:37:46;;;;;;;7.72;4.85;;;17.90;99.90;;;;;;5037132;28;20131;-49
2023/05/21 05:40:12;;;;;;;9.02;4.88;;;18.00;99.90;;;;;;5072469;28;20063;-48
2023/05/21 05:42:38;;;;;;;6.53;4.78;;;18.20;99.90;;;;;;5068295;28;20040;-49
2023/05/21 05:45:04;;;;;;;8.40;5.20;;;18.10;99.90;;;;;;5065439;28;20043;-49
2023/05/21 05:47:30;;;;;;;6.20;4.50;;;18.10;99.90;;;;;;5069441;28;20397;-48
2023/05/21 05:49:56;;;;;;;8.85;5.18;;;18.20;99.90;;;;;;5072466;28;20054;-49
2023/05/21 05:52:21;;;;;;;8.27;4.57;;;18.00;99.90;;;;;;5072566;28;20059;-49
2023/05/21 05:54:47;;;;;;;6.35;4.63;;;18.00;99.90;;;;;;5071856;28;20085;-48
2023/05/21 05:57:13;;;;;;;7.32;4.30;;;17.90;99.90;;;;;;5071966;28;20024;-49
2023/05/21 05:59:38;;;;;;;6.40;4.53;;;17.90;99.90;;;;;;5067017;28;20117;-48
2023/05/21 06:02:04;;;;;;;6.32;4.47;;;17.80;99.90;;;;;;5071925;28;20047;-49
2023/05/21 06:04:30;;;;;;;6.63;4.97;;;18.10;99.90;;;;;;5072733;28;20083;-49
2023/05/21 06:06:56;;;;;;;9.93;5.78;;;18.00;99.90;;;;;;5070880;28;20545;-49
2023/05/21 06:09:23;;;;;;;8.52;5.47;;;17.90;99.90;;;;;;5068532;28;20029;-49
2023/05/21 06:11:49;;;;;;;6.70;5.18;;;17.90;99.90;;;;;;5068195;28;20039;-49
2023/05/21 06:14:14;;;;;;;7.30;5.72;;;18.00;99.90;;;;;;5072117;28;20025;-49
2023/05/21 06:16:40;;;;;;;8.10;5.07;;;18.40;99.90;;;;;;5071849;28;20395;-50
2023/05/21 06:19:06;;;;;;;6.70;4.70;;;;;;;;;;5070442;28;20023;-49
2023/05/21 06:21:32;;;;;;;7.20;5.18;;;18.60;99.90;;;;;;5071829;28;20035;-49
2023/05/21 06:23:58;;;;;;;6.07;4.82;;;;;;;;;;5086897;28;20029;-50
2023/05/21 06:26:25;;;;;;;7.85;5.47;;;19.20;99.90;;;;;;5087181;28;20041;-49
2023/05/21 06:28:50;;;;;;;7.15;5.18;;;19.30;99.90;;;;;;5072665;28;20028;-49
2023/05/21 06:31:17;;;;;;;7.65;5.50;;;;;;;;;;5067316;28;20039;-50
2023/05/21 06:33:43;;;;;;;8.32;5.43;;;;;;;;;;5071700;28;20048;-48
2023/05/21 06:36:09;;;;;;;8.27;5.15;;;19.80;99.90;;;;;;5071669;28;20033;-49
2023/05/21 06:38:35;;;;;;;7.75;4.82;;;;;;;;;;5071905;28;20033;-49
2023/05/21 06:41:02;;;;;;;8.07;5.20;;;20.00;99.90;;;;;;5071450;28;20058;-49
2023/05/21 06:43:28;;;;;;;7.03;5.20;;;19.90;99.90;;;;;;5067063;28;20033;-49
2023/05/21 06:45:54;;;;;;;9.50;5.68;;;;;;;;;;5071132;28;20032;-49
2023/05/21 06:48:20;;;;;;;7.43;4.85;;;20.50;99.90;;;;;;5084983;28;20040;-49
2023/05/21 06:50:46;;;;;;;7.60;4.47;;;20.40;99.90;;;;;;5071629;28;20511;-48
2023/05/21 06:53:15;;;;;;;6.53;5.00;;;20.50;99.90;;;;;;5071036;28;20392;-50
2023/05/21 06:55:43;;;;;;;8.98;5.53;;;20.30;99.90;;;;;;5069489;28;20041;-49
2023/05/21 06:58:12;;;;;;;7.32;5.60;;;20.60;99.90;;;;;;5071497;28;20123;-49
2023/05/21 07:00:38;;;;;;;7.57;5.15;;;21.10;99.90;;;;;;5071442;28;20087;-48
2023/05/21 07:03:04;;;;;;;6.22;4.72;;;21.10;99.90;;;;;;5036821;28;20041;-49
2023/05/21 07:05:30;;;;;;;6.25;4.30;;;21.10;99.90;;;;;;5071580;28;20158;-49
2023/05/21 07:07:55;;;;;;;10.27;4.78;;;21.30;99.90;;;;;;5068876;28;20501;-50
2023/05/21 07:10:21;;;;;;;7.47;4.60;;;21.20;99.90;;;;;;5071378;28;20029;-48
2023/05/21 07:12:47;;;;;;;6.18;4.03;;;21.40;99.90;;;;;;5070671;28;20047;-49
2023/05/21 07:15:13;;;;;;;5.75;4.60;;;21.50;99.90;;;;;;5071638;28;20066;-49
2023/05/21 07:17:38;;;;;;;6.90;3.92;;;21.40;99.90;;;;;;5069239;28;20123;-50
2023/05/21 07:20:08;;;;;;;6.00;4.05;;;21.20;99.90;;;;;;5070960;28;20160;-49
2023/05/21 07:22:40;;;;;;;7.47;4.00;;;21.00;99.90;;;;;;5070716;28;20043;-48
2023/05/21 07:25:06;;;;;;;6.07;4.18;;;20.80;99.90;;;;;;5089806;28;20040;-49
2023/05/21 07:27:31;;;;;;;5.57;3.58;;;20.50;99.90;;;;;;5075340;28;20032;-49
2023/05/21 07:29:57;;;;;;;5.68;4.05;;;20.70;99.90;;;;;;5074405;28;20021;-49
2023/05/21 07:32:23;;;;;;;6.80;4.43;;;20.80;99.90;;;;;;5067166;28;20036;-50
2023/05/21 07:34:49;;;;;;;5.55;3.75;;;20.70;99.90;;;;;;5053755;28;20052;-48
2023/05/21 07:37:14;;;;;;;5.13;3.80;;;20.80;99.90;;;;;;5070866;28;20158;-49
2023/05/21 07:39:40;;;;;;;4.97;3.97;;;21.00;99.90;;;;;;5044122;28;20048;-49
2023/05/21 07:42:06;;;;;;;5.55;4.28;;;21.50;99.90;;;;;;5074596;28;20033;-49
2023/05/21 07:44:31;;;;;;;7.53;4.25;;;21.60;99.90;;;;;;5071236;28;20503;-49
2023/05/21 07:46:58;;;;;;;5.75;3.95;;;;;;;;;;5073157;28;20025;-49
2023/05/21 07:49:23;;;;;;;4.88;3.75;;;22.10;99.90;;;;;;5067179;28;20040;-49
2023/05/21 07:51:49;;;;;;;5.28;3.40;;;22.20;99.90;;;;;;5072005;28;20120;-49
2023/05/21 07:54:15;;;;;;;5.18;4.10;;;22.30;99.90;;;;;;5074287;28;20028;-48
2023/05/21 07:56:41;;;;;;;5.20;3.80;;;22.20;99.90;;;;;;5070861;28;20024;-50
2023/05/21 07:59:07;;;;;;;8.38;4.25;;;;;;;;;;5071754;28;20048;-48
2023/05/21 08:01:36;;;;;;;5.97;4.00;;;;;;;;;;5075114;28;20047;-49
2023/05/21 08:04:05;;;;;;;5.35;3.80;;;23.00;99.90;;;;;;5073670;28;20068;-48
2023/05/21 08:06:32;;;;;;;5.78;4.05;;;23.10;99.90;;;;;;5072667;28;20040;-51
2023/05/21 08:09:00;;;;;;;4.90;3.55;;;;;;;;;;5074531;28;20033;-49
2023/05/21 08:11:27;;;;;;;6.43;4.10;;;;;;;;;;5072160;28;20451;-50
2023/05/21 08:13:53;;;;;;;5.55;4.18;;;23.70;99.90;;;;;;5089782;28;20051;-49
2023/05/21 08:16:20;;;;;;;4.18;3.15;;;23.90;99.90;;;;;;5073857;28;20056;-48
2023/05/21 08:18:46;;;;;;;4.97;3.75;;;;;;;;;;5069630;28;20537;-47
2023/05/21 08:21:12;;;;;;;5.80;3.85;;;;;;;;;;5074262;28;20024;-48
2023/05/21 08:23:37;;;;;;;5.18;4.13;;;24.20;99.90;;;;;;5072172;28;20037;-47
2023/05/21 08:26:03;;;;;;;4.63;3.40;;;24.20;99.90;;;;;;5068065;28;20498;-48
2023/05/21 08:28:29;;;;;;;6.05;3.63;;;24.10;99.90;;;;;;5054559;28;20041;-48
2023/05/21 08:30:55;;;;;;;5.80;3.78;;;24.20;99.90;;;;;;5070331;28;20530;-47
2023/05/21 08:33:21;;;;;;;5.68;3.60;;;;;;;;;;5088607;28;20095;-48
2023/05/21 08:35:47;;;;;;;6.25;3.60;;;;;;;;;;5074509;28;20032;-48
2023/05/21 08:38:15;;;;;;;6.43;3.33;;;;;;;;;;5037289;28;20037;-48
2023/05/21 08:40:41;;;;;;;6.32;3.25;;;;;;;;;;5071192;28;20036;-48
2023/05/21 08:43:12;;;;;;;7.65;3.95;;;24.60;99.90;;;;;;5088677;28;20043;-47
2023/05/21 08:45:43;;;;;;;5.23;3.47;;;24.80;99.90;;;;;;5088430;28;20048;-48
2023/05/21 08:48:13;;;;;;;4.28;3.47;;;;;;;;;;5072129;28;20024;-48
2023/05/21 08:50:40;;;;;;;4.97;3.45;;;;;;;;;;5088209;28;20159;-48
2023/05/21 08:53:06;;;;;;;4.78;3.33;;;;;;;;;;5072966;28;20043;-48
2023/05/21 08:55:33;;;;;;;4.28;3.58;;;;;;;;;;5073381;28;20041;-48
2023/05/21 08:57:59;;;;;;;5.53;3.38;;;25.10;99.90;;;;;;5069575;28;20028;-48
2023/05/21 09:00:26;;;;;;;5.10;3.28;;;;;;;;;;5067266;28;20040;-48
2023/05/21 09:02:53;;;;;;;4.60;2.90;;;;;;;;;;5086910;28;20072;-48
2023/05/21 09:05:21;;;;;;;4.60;3.15;;;25.00;99.90;;;;;;5071885;28;20033;-48
2023/05/21 09:08:09;;;;;;;4.78;3.53;;;24.90;99.90;;;;;;5069654;28;20115;-48
2023/05/21 09:10:38;;;;;;;6.88;3.60;;;25.10;99.90;;;;;;5073051;28;20033;-48
2023/05/21 09:13:04;;;;;;;5.43;2.97;;;;;;;;;;5071985;28;20032;-48
2023/05/21 09:15:30;;;;;;;6.25;3.42;;;25.30;99.90;;;;;;5087930;28;20420;-48
2023/05/21 09:17:56;;;;;;;5.95;3.90;;;25.50;99.90;;;;;;5070483;28;20033;-48
2023/05/21 09:20:26;;;;;;;4.97;3.45;;;25.60;99.90;;;;;;5065497;28;20040;-48
2023/05/21 09:22:54;;;;;;;7.00;3.45;;;;;;;;;;5069528;28;20487;-47
2023/05/21 09:25:26;;;;;;;5.82;3.53;;;25.90;99.90;;;;;;5068560;28;20036;-48
2023/05/21 09:27:54;;;;;;;4.30;3.42;;;26.10;99.90;;;;;;5064033;28;20033;-48
2023/05/21 09:30:21;;;;;;;4.60;3.28;;;;;;;;;;5069739;28;20411;-48
2023/05/21 09:32:55;;;;;;;4.32;3.10;;;26.00;99.90;;;;;;5071027;28;20068;-49
2023/05/21 09:35:21;;;;;;;6.75;3.80;;;26.20;99.90;;;;;;5072098;28;20047;-48
2023/05/21 09:37:48;;;;;;;5.18;3.40;;;26.20;99.90;;;;;;5071653;28;20544;-49
2023/05/21 09:40:14;;;;;;;4.20;3.55;;;26.40;99.90;;;;;;5071255;28;20066;-48
2023/05/21 09:42:42;;;;;;;6.28;3.20;;;;;;;;;;5063644;28;20037;-50
2023/05/21 09:45:09;;;;;;;4.13;3.15;;;26.60;99.90;;;;;;5071690;28;20060;-50
2023/05/21 09:47:43;;;;;;;5.70;3.58;;;26.60;99.90;;;;;;5068814;28;20074;-46
2023/05/21 09:50:11;;;;;;;5.10;3.55;;;26.60;99.90;;;;;;5072215;28;20032;-47
2023/05/21 09:52:37;;;;;;;4.28;3.13;;;26.70;99.90;;;;;;5087134;28;21130;-47
2023/05/21 09:55:10;;;;;;;5.15;2.92;;;26.60;99.90;;;;;;5071832;28;20028;-49
2023/05/21 09:57:43;;;;;;;11.63;3.35;;;26.80;99.90;;;;;;5062797;28;20037;-47
2023/05/21 10:00:20;;;;;;;4.50;3.17;;;26.80;99.90;;;;;;5071395;28;20063;-47
2023/05/21 10:02:47;;;;;;;5.32;3.65;;;;;;;;;;5072164;28;20527;-49
2023/05/21 10:05:14;;;;;;;4.78;3.60;;;27.30;99.90;;;;;;5071870;28;20021;-49
2023/05/21 10:08:01;;;;;;;4.47;3.20;;;27.50;99.90;;;;;;5070584;28;20125;-46
2023/05/21 10:10:27;;;;;;;4.45;2.95;;;27.30;99.90;;;;;;5069350;28;20388;-49
2023/05/21 10:13:08;;;;;;;7.25;4.50;;;27.50;99.90;;;;;;5066367;28;20044;-49
2023/05/21 10:15:40;;;;;;;5.47;3.70;;;27.70;99.90;;;;;;5063874;28;20373;-49
2023/05/21 10:18:07;;;;;;;4.55;3.22;;;27.90;99.90;;;;;;5064461;28;20048;-47
2023/05/21 10:20:34;;;;;;;5.25;3.30;;;27.70;99.90;;;;;;5062453;28;20045;-48
2023/05/21 10:23:02;;;;;;;4.63;2.92;;;27.60;99.90;;;;;;5063991;28;20033;-48
2023/05/21 10:25:29;;;;;;;4.65;2.83;;;27.70;99.90;;;;;;5061887;28;20063;-48
2023/05/21 10:27:56;;;;;;;4.30;2.92;;;27.80;99.90;;;;;;5061244;28;20032;-48
2023/05/21 10:30:23;;;;;;;6.10;3.25;;;27.90;99.90;;;;;;5067553;28;20472;-47
2023/05/21 10:32:49;;;;;;;6.85;3.25;;;28.10;99.90;;;;;;5064537;28;20066;-48
2023/05/21 10:35:15;;;;;;;6.18;3.38;;;28.60;99.90;;;;;;5066066;28;20115;-47
2023/05/21 10:37:43;;;;;;;5.55;2.78;;;28.60;99.90;;;;;;5067083;28;20494;-49
2023/05/21 10:40:10;;;;;;;4.75;3.13;;;;;;;;;;5051597;28;20132;-46
2023/05/21 10:42:36;;;;;;;4.80;3.10;;;28.80;99.80;;;;;;5068235;28;20033;-46
2023/05/21 10:45:05;;;;;;;5.03;3.53;;;28.80;99.70;;;;;;5065034;28;20522;-48
2023/05/21 10:47:43;;;;;;;6.40;3.15;;;28.30;99.90;;;;;;5069736;28;20021;-46
2023/05/21 10:50:15;;;;;;;5.80;3.13;;;27.70;99.90;;;;;;5071521;28;20031;-47
2023/05/21 10:53:11;;;;;;;3.95;2.80;;;27.90;99.90;;;;;;5073745;28;20045;-49
2023/05/21 10:55:58;;;;;;;5.10;3.20;;;28.00;99.30;;;;;;5066377;28;20415;-46
2023/05/21 10:58:44;;;;;;;4.70;2.97;;;28.20;99.40;;;;;;5073403;28;20037;-47
2023/05/21 11:01:10;;;;;;;4.65;2.97;;;28.70;98.30;;;;;;5075566;28;20040;-48
2023/05/21 11:03:37;;;;;;;4.30;2.90;;;;;;;;;;5076479;28;20036;-47
2023/05/21 11:06:05;;;;;;;5.65;3.50;;;29.10;98.10;;;;;;5039562;28;20396;-46
2023/05/21 11:08:34;;;;;;;3.10;2.67;;;29.00;97.50;;;;;;5075843;28;20410;-47
2023/05/21 11:11:01;;;;;;;6.10;2.55;;;28.90;97.60;;;;;;5074253;28;20036;-46
2023/05/21 11:13:47;;;;;;;4.55;2.97;;;29.00;97.60;;;;;;5075127;28;20051;-48
2023/05/21 11:16:14;;;;;;;5.85;3.00;;;29.10;97.90;;;;;;5067417;28;20064;-48
2023/05/21 11:18:40;;;;;;;5.00;3.42;;;28.90;97.50;;;;;;5074190;28;20064;-47
2023/05/21 11:21:19;;;;;;;4.57;2.63;;;28.80;96.90;;;;;;5090065;28;20069;-49
2023/05/21 11:23:56;;;;;;;5.50;2.65;;;;;;;;;;5071834;28;20024;-48
2023/05/21 11:26:23;;;;;;;5.65;2.97;;;;;;;;;;5090008;28;20044;-46
2023/05/21 11:29:04;;;;;;;5.13;2.70;;;29.50;95.70;;;;;;5074931;28;20117;-49
2023/05/21 11:31:37;;;;;;;5.15;2.63;;;29.50;95.60;;;;;;5072857;28;20037;-49
2023/05/21 11:34:28;;;;;;;5.22;2.97;;;29.70;95.30;;;;;;5074829;28;20048;-49
2023/05/21 11:37:23;;;;;;;4.60;2.88;;;29.80;96.10;;;;;;5073523;28;20033;-46
2023/05/21 11:39:50;;;;;;;4.72;2.80;;;29.30;95.00;;;;;;5072507;28;20439;-46
2023/05/21 11:42:29;;;;;;;4.60;2.70;;;29.10;94.20;;;;;;5071788;28;20031;-47
2023/05/21 11:44:59;;;;;;;7.45;3.03;;;29.10;94.20;;;;;;5054871;28;20127;-49
2023/05/21 11:47:25;;;;;;;3.55;2.72;;;29.00;94.30;;;;;;5072586;28;20074;-46
2023/05/21 11:49:51;;;;;;;3.35;2.10;;;29.30;94.70;;;;;;5071643;28;20495;-49
2023/05/21 11:52:21;;;;;;;5.30;2.92;;;;;;;;;;5074038;28;20040;-47
2023/05/21 11:54:50;;;;;;;3.13;2.15;;;29.30;95.00;;;;;;5074053;28;20537;-49
2023/05/21 11:57:17;;;;;;;5.13;3.05;;;28.20;93.50;;;;;;5065543;28;20121;-48
2023/05/21 11:59:44;;;;;;;5.85;3.03;;;28.30;94.80;;;;;;5069221;28;20048;-49
2023/05/21 12:02:15;;;;;;;5.05;2.75;;;;;;;;;;5074308;28;20032;-46
2023/05/21 12:04:41;;;;;;;5.60;2.80;;;29.00;94.10;;;;;;5072823;28;20041;-48
2023/05/21 12:07:09;;;;;;;4.25;2.80;;;29.10;94.60;;;;;;5039346;28;20035;-48
2023/05/21 12:09:39;;;;;;;4.38;2.40;;;;;;;;;;5074383;28;20032;-48
2023/05/21 12:12:07;;;;;;;3.00;2.40;;;;;;;;;;5073382;28;20078;-47
2023/05/21 12:14:34;;;;;;;5.00;2.80;;;;;;;;;;5071336;28;20036;-47
2023/05/21 12:17:00;;;;;;;3.65;2.22;;;;;;;;;;5090003;28;20094;-49
2023/05/21 12:19:26;;;;;;;4.50;2.53;;;;;;;;;;5069030;28;20040;-47
2023/05/21 12:21:52;;;;;;;3.47;2.95;;;;;;;;;;5089137;28;20503;-48
2023/05/21 12:24:18;;;;;;;4.03;2.30;;;;;;;;;;5073453;28;20029;-47
2023/05/21 12:26:45;;;;;;;4.47;2.70;;;;;;;;;;5073351;28;20028;-49
2023/05/21 12:29:11;;;;;;;4.13;2.50;;;;;;;;;;5088737;28;20037;-50
2023/05/21 12:31:48;;;;;;;5.18;2.63;;;;;;;;;;5072497;28;20043;-49
2023/05/21 12:34:17;;;;;;;4.07;2.67;;;;;;;;;;5088324;28;20124;-48
2023/05/21 12:36:50;;;;;;;4.43;2.55;;;;;;;;;;5087072;28;20123;-46
2023/05/21 12:39:16;;;;;;;3.55;2.45;;;;;;;;;;5057398;28;20124;-48
2023/05/21 12:41:43;;;;;;;3.20;2.58;;;;;;;;;;5062284;28;20032;-46
2023/05/21 12:44:11;;;;;;;6.50;3.05;;;;;;;;;;5067630;28;20036;-48
2023/05/21 12:46:37;;;;;;;4.10;2.85;;;;;;;;;;5063864;28;20057;-48
2023/05/21 12:49:03;;;;;;;3.75;2.85;;;;;;;;;;5061072;28;20028;-49
2023/05/21 12:51:39;;;;;;;4.70;3.10;;;;;;;;;;5069439;28;20520;-55
2023/05/21 12:54:12;;;;;;;3.60;2.20;;;;;;;;;;5068197;28;20048;-49
2023/05/21 12:56:44;;;;;;;4.82;2.22;;;;;;;;;;5068452;28;20111;-50
2023/05/21 12:59:16;;;;;;;8.15;3.17;;;;;;;;;;5069998;28;20429;-51
2023/05/21 13:01:46;;;;;;;3.72;2.72;;;;;;;;;;5015998;28;20045;-49
2023/05/21 13:04:13;;;;;;;4.60;2.78;;;;;;;;;;5070514;28;20028;-52
2023/05/21 13:06:44;;;;;;;3.60;2.65;;;;;;;;;;5068377;28;20503;-49
2023/05/21 13:09:10;;;;;;;6.10;2.47;;;;;;;;;;5063194;28;20044;-50
2023/05/21 13:11:36;;;;;;;4.63;2.55;;;;;;;;;;5072626;28;20120;-49